createdAt,value
2022-08-05T00:02:07.946Z,1.70
2022-08-05T00:04:37.824Z,2.13
2022-08-05T00:07:32.081Z,1.63
2022-08-05T00:09:53.347Z,1.63
2022-08-05T00:12:21.108Z,2.15
2022-08-05T00:14:48.379Z,1.60
2022-08-05T00:17:19.582Z,1.70
2022-08-05T00:20:02.401Z,1.58
2022-08-05T00:22:29.253Z,1.80
2022-08-05T00:24:57.373Z,1.52
2022-08-05T00:27:35.662Z,1.35
2022-08-05T00:30:03.893Z,2.08
2022-08-05T00:32:30.315Z,1.58
2022-08-05T00:35:06.203Z,1.25
2022-08-05T00:37:35.881Z,1.77
2022-08-05T00:40:27.149Z,1.55
2022-08-05T00:42:55.453Z,1.40
2022-08-05T00:45:28.301Z,1.83
2022-08-05T00:48:05.563Z,1.58
2022-08-05T00:50:32.608Z,1.70
2022-08-05T00:52:59.063Z,1.88
2022-08-05T00:55:42.357Z,1.75
2022-08-05T00:58:11.107Z,1.55
2022-08-05T01:00:38.215Z,1.67
2022-08-05T01:03:07.857Z,1.60
2022-08-05T01:05:34.814Z,1.98
2022-08-05T01:08:41.929Z,1.80
2022-08-05T01:11:00.825Z,1.60
2022-08-05T01:13:58.642Z,1.33
2022-08-05T01:16:45.003Z,1.70
2022-08-05T01:19:18.877Z,1.60
2022-08-05T01:21:52.641Z,1.63
2022-08-05T01:24:42.885Z,1.40
2022-08-05T01:27:23.444Z,1.35
2022-08-05T01:29:52.549Z,1.60
2022-08-05T01:32:23.137Z,1.33
2022-08-05T01:34:58.441Z,1.50
2022-08-05T01:37:29.733Z,1.13
2022-08-05T01:39:59.612Z,1.48
2022-08-05T01:42:26.848Z,1.90
2022-08-05T01:44:55.934Z,1.75
2022-08-05T01:47:24.146Z,1.23
2022-08-05T01:50:02.296Z,1.83
2022-08-05T01:52:29.821Z,1.40
2022-08-05T01:54:57.766Z,1.33
2022-08-05T01:58:12.660Z,0.90
2022-08-05T02:00:15.796Z,1.65
2022-08-05T02:02:51.182Z,2.03
2022-08-05T02:05:23.469Z,1.35
2022-08-05T02:08:00.067Z,1.58
2022-08-05T02:10:30.953Z,1.20
2022-08-05T02:13:16.295Z,1.85
2022-08-05T02:15:54.972Z,1.08
2022-08-05T02:18:31.171Z,1.52
2022-08-05T02:21:06.691Z,1.30
2022-08-05T02:23:42.702Z,1.63
2022-08-05T02:26:10.473Z,1.20
2022-08-05T02:28:41.682Z,1.70
2022-08-05T02:31:15.026Z,1.83
2022-08-05T02:33:44.895Z,1.77
2022-08-05T02:36:13.740Z,1.45
2022-08-05T02:38:42.914Z,1.60
2022-08-05T02:41:17.124Z,1.40
2022-08-05T02:44:06.371Z,1.10
2022-08-05T02:46:32.777Z,1.17
2022-08-05T02:49:01.213Z,1.35
2022-08-05T02:51:28.440Z,1.40
2022-08-05T02:54:34.890Z,1.38
2022-08-05T02:57:01.913Z,1.42
2022-08-05T02:59:29.712Z,1.20
2022-08-05T03:04:42.284Z,1.60
2022-08-05T03:07:09.608Z,1.40
2022-08-05T03:09:57.313Z,1.50
2022-08-05T03:12:34.425Z,1.30
2022-08-05T03:15:00.805Z,1.00
2022-08-05T03:17:28.317Z,1.40
2022-08-05T03:19:55.083Z,1.20
2022-08-05T03:22:32.251Z,1.48
2022-08-05T03:25:11.532Z,1.27
2022-08-05T03:28:00.048Z,1.52
2022-08-05T03:30:30.157Z,1.10
2022-08-05T03:33:01.800Z,1.27
2022-08-05T03:35:28.654Z,0.90
2022-08-05T03:37:58.749Z,1.02
2022-08-05T03:40:31.944Z,1.02
2022-08-05T03:42:59.371Z,1.52
2022-08-05T03:45:27.964Z,1.27
2022-08-05T03:47:57.006Z,1.00
2022-08-05T03:50:28.719Z,1.30
2022-08-05T03:55:06.751Z,1.13
2022-08-05T03:56:10.070Z,0.95
2022-08-05T03:58:41.106Z,0.90
2022-08-05T04:01:08.711Z,1.05
2022-08-05T04:03:40.222Z,0.60
2022-08-05T04:06:27.108Z,0.80
2022-08-05T04:08:54.509Z,1.25
2022-08-05T04:11:21.084Z,1.00
2022-08-05T04:13:53.476Z,1.08
2022-08-05T04:16:24.394Z,0.98
2022-08-05T04:18:54.235Z,1.13
2022-08-05T04:22:10.006Z,1.05
2022-08-05T04:24:09.185Z,1.00
2022-08-05T04:26:46.379Z,0.77
2022-08-05T04:29:13.097Z,0.77
2022-08-05T04:31:40.693Z,1.40
2022-08-05T04:34:31.697Z,0.70
2022-08-05T04:36:53.977Z,0.73
2022-08-05T04:39:21.092Z,0.90
2022-08-05T04:41:48.486Z,1.27
2022-08-05T04:44:21.187Z,0.88
2022-08-05T04:46:50.762Z,0.68
2022-08-05T04:49:19.182Z,0.55
2022-08-05T04:51:51.143Z,0.95
2022-08-05T04:54:27.223Z,0.82
2022-08-05T04:56:58.941Z,1.02
2022-08-05T04:59:38.255Z,0.73
2022-08-05T05:02:37.470Z,0.60
2022-08-05T05:04:52.107Z,1.02
2022-08-05T05:07:18.620Z,0.70
2022-08-05T05:09:55.524Z,0.70
2022-08-05T05:12:24.289Z,1.20
2022-08-05T05:14:53.993Z,1.00
2022-08-05T05:17:24.297Z,1.13
2022-08-05T05:19:55.186Z,0.70
2022-08-05T05:22:26.476Z,0.80
2022-08-05T05:25:00.002Z,0.70
2022-08-05T05:27:45.068Z,0.70
2022-08-05T05:30:29.456Z,0.90
2022-08-05T05:33:00.613Z,0.88
2022-08-05T05:35:27.535Z,0.95
2022-08-05T05:38:00.213Z,0.85
2022-08-05T05:40:28.155Z,0.60
2022-08-05T05:42:55.027Z,0.98
2022-08-05T05:45:22.838Z,0.68
2022-08-05T05:48:06.210Z,0.80
2022-08-05T05:50:34.109Z,0.77
2022-08-05T05:53:00.536Z,0.80
2022-08-05T05:55:52.161Z,0.63
2022-08-05T05:58:13.287Z,0.63
2022-08-05T06:00:40.636Z,0.60
2022-08-05T06:03:40.008Z,1.15
2022-08-05T06:05:58.652Z,0.73
2022-08-05T06:08:32.762Z,0.73
2022-08-05T06:10:59.566Z,0.40
2022-08-05T06:13:26.665Z,0.80
2022-08-05T06:16:28.596Z,0.60
2022-08-05T06:18:39.512Z,0.60
2022-08-05T06:21:07.916Z,0.90
2022-08-05T06:23:43.959Z,0.80
2022-08-05T06:26:20.875Z,0.55
2022-08-05T06:28:50.321Z,0.60
2022-08-05T06:31:17.923Z,0.47
2022-08-05T06:34:07.859Z,0.47
2022-08-05T06:36:53.459Z,0.40
2022-08-05T06:39:21.851Z,0.30
2022-08-05T06:41:50.861Z,0.50
2022-08-05T06:44:18.611Z,0.40
2022-08-05T06:46:50.604Z,0.63
2022-08-05T06:49:17.677Z,0.28
2022-08-05T06:51:45.436Z,0.60
2022-08-05T06:54:12.042Z,0.38
2022-08-05T06:56:55.110Z,0.20
2022-08-05T06:59:38.545Z,0.60
2022-08-05T07:02:05.284Z,0.60
2022-08-05T07:04:31.643Z,0.30
2022-08-05T07:06:59.516Z,0.70
2022-08-05T07:09:25.933Z,0.80
2022-08-05T07:12:00.453Z,0.30
2022-08-05T07:14:45.902Z,0.30
2022-08-05T07:17:57.388Z,0.30
2022-08-05T07:22:45.708Z,0.40
2022-08-05T07:25:54.320Z,0.60
2022-08-05T07:28:07.279Z,0.20
2022-08-05T07:33:05.342Z,0.30
2022-08-05T07:36:03.641Z,0.40
2022-08-05T07:38:32.284Z,0.15
2022-08-05T07:41:16.683Z,0.40
2022-08-05T07:43:47.903Z,0.40
2022-08-05T07:46:24.285Z,0.68
2022-08-05T07:49:04.466Z,0.52
2022-08-05T07:51:48.702Z,0.40
2022-08-05T07:54:23.337Z,0.70
2022-08-05T07:57:01.662Z,0.30
2022-08-05T07:59:41.131Z,0.35
2022-08-05T08:02:16.881Z,0.38
2022-08-05T08:04:47.514Z,0.55
2022-08-05T08:07:15.118Z,0.45
2022-08-05T08:09:41.747Z,0.40
2022-08-05T08:12:27.334Z,0.40
2022-08-05T08:14:54.661Z,0.40
2022-08-05T08:17:21.610Z,0.30
2022-08-05T08:20:22.989Z,0.32
2022-08-05T08:22:34.565Z,0.30
2022-08-05T08:25:03.082Z,0.38
2022-08-05T08:27:40.074Z,0.30
2022-08-05T08:30:29.475Z,0.70
2022-08-05T08:32:58.197Z,0.40
2022-08-05T08:35:29.321Z,0.43
2022-08-05T08:38:01.740Z,0.50
2022-08-05T08:40:28.805Z,0.22
2022-08-05T08:42:55.494Z,0.30
2022-08-05T08:45:27.019Z,0.40
2022-08-05T08:48:12.835Z,0.30
2022-08-05T08:51:03.994Z,0.40
2022-08-05T08:53:35.682Z,0.35
2022-08-05T08:56:06.075Z,0.25
2022-08-05T08:58:37.061Z,0.40
2022-08-05T09:01:15.894Z,0.30
2022-08-05T09:03:45.218Z,0.30
2022-08-05T09:06:14.696Z,0.30
2022-08-05T09:08:44.995Z,0.47
2022-08-05T09:11:13.678Z,0.95
2022-08-05T09:14:09.886Z,0.40
2022-08-05T09:16:27.648Z,0.50
2022-08-05T09:18:55.502Z,0.38
2022-08-05T09:22:22.325Z,0.30
2022-08-05T09:24:13.099Z,0.22
2022-08-05T09:26:43.665Z,0.25
2022-08-05T09:29:10.602Z,0.20
2022-08-05T09:32:41.803Z,0.40
2022-08-05T09:34:46.123Z,0.40
2022-08-05T09:38:11.927Z,0.30
2022-08-05T09:40:07.081Z,0.40
2022-08-05T09:42:40.993Z,0.30
2022-08-05T09:46:04.971Z,0.20
2022-08-05T09:47:57.422Z,0.20
2022-08-05T09:50:38.938Z,0.30
2022-08-05T09:53:23.068Z,0.35
2022-08-05T09:56:12.865Z,0.20
2022-08-05T09:58:42.029Z,0.40
2022-08-05T10:01:15.072Z,0.30
2022-08-05T10:04:03.067Z,0.50
2022-08-05T10:06:30.951Z,0.30
2022-08-05T10:09:27.399Z,0.20
2022-08-05T10:11:54.478Z,0.50
2022-08-05T10:14:32.829Z,0.40
2022-08-05T10:17:38.101Z,0.15
2022-08-05T10:19:59.212Z,0.47
2022-08-05T10:22:35.133Z,0.30
2022-08-05T10:25:04.868Z,0.38
2022-08-05T10:28:09.709Z,0.20
2022-08-05T10:32:46.896Z,0.20
2022-08-05T10:33:14.552Z,0.22
2022-08-05T10:35:44.324Z,0.20
2022-08-05T10:38:12.116Z,0.30
2022-08-05T10:40:51.918Z,0.45
2022-08-05T10:43:35.808Z,0.32
2022-08-05T10:46:06.232Z,0.10
2022-08-05T10:48:52.831Z,0.50
2022-08-05T10:51:23.058Z,0.30
2022-08-05T10:53:58.190Z,0.40
2022-08-05T10:56:26.670Z,0.22
2022-08-05T10:58:52.996Z,0.38
2022-08-05T11:01:55.384Z,0.28
2022-08-05T11:04:17.478Z,0.30
2022-08-05T11:07:06.611Z,0.35
2022-08-05T11:09:46.058Z,0.40
2022-08-05T11:12:31.721Z,0.30
2022-08-05T11:15:19.055Z,0.20
2022-08-05T11:17:57.116Z,0.20
2022-08-05T11:20:34.921Z,0.20
2022-08-05T11:23:21.301Z,0.20
2022-08-05T11:26:10.003Z,0.28
2022-08-05T11:28:36.906Z,0.20
2022-08-05T11:31:06.311Z,0.43
2022-08-05T11:33:47.714Z,0.20
2022-08-05T11:36:16.409Z,0.20
2022-08-05T11:39:01.485Z,0.50
2022-08-05T11:41:58.090Z,0.28
2022-08-05T11:44:40.453Z,0.30
2022-08-05T11:47:14.040Z,0.35
2022-08-05T11:49:51.181Z,0.30
2022-08-05T11:52:29.477Z,0.43
2022-08-05T11:54:58.673Z,0.20
2022-08-05T11:57:29.095Z,0.20
2022-08-05T11:59:57.623Z,0.20
2022-08-05T12:02:31.425Z,0.20
2022-08-05T12:05:00.061Z,0.57
2022-08-05T12:08:03.467Z,0.10
2022-08-05T12:10:17.305Z,0.22
2022-08-05T12:12:58.327Z,0.08
2022-08-05T12:15:34.626Z,0.20
2022-08-05T12:18:10.550Z,0.38
2022-08-05T12:20:38.930Z,0.20
2022-08-05T12:23:11.932Z,0.20
2022-08-05T12:25:51.644Z,0.30
2022-08-05T12:28:36.704Z,0.20
2022-08-05T12:31:04.270Z,0.25
2022-08-05T12:33:36.598Z,0.40
2022-08-05T12:36:08.990Z,0.20
2022-08-05T12:38:40.149Z,0.30
2022-08-05T12:41:13.450Z,0.22
2022-08-05T12:43:54.274Z,0.20
2022-08-05T12:46:29.131Z,0.22
2022-08-05T12:52:14.234Z,0.10
2022-08-05T12:54:14.697Z,0.20
2022-08-05T12:56:46.900Z,0.30
2022-08-05T12:59:27.585Z,0.30
2022-08-05T13:02:10.133Z,0.20
2022-08-05T13:04:54.318Z,0.60
2022-08-05T13:07:47.776Z,0.20
2022-08-05T13:10:12.609Z,0.10
2022-08-05T13:12:42.525Z,0.40
2022-08-05T13:15:24.398Z,0.20
2022-08-05T13:18:02.633Z,0.20
2022-08-05T13:20:35.537Z,0.60
2022-08-05T13:23:07.388Z,0.75
2022-08-05T13:25:51.670Z,0.30
2022-08-05T13:28:21.885Z,0.55
2022-08-05T13:30:48.741Z,0.50
2022-08-05T13:34:23.016Z,0.47
2022-08-05T13:36:05.210Z,0.40
2022-08-05T13:38:36.048Z,0.38
2022-08-05T13:41:05.931Z,0.50
2022-08-05T13:43:45.760Z,1.50
2022-08-05T13:46:30.842Z,0.40
2022-08-05T13:49:11.380Z,0.60
2022-08-05T13:51:41.017Z,0.60
2022-08-05T13:54:12.859Z,0.30
2022-08-05T13:56:45.558Z,0.85
2022-08-05T13:59:19.730Z,0.70
2022-08-05T14:01:58.190Z,0.60
2022-08-05T14:04:52.083Z,0.40
2022-08-05T14:07:55.705Z,0.70
2022-08-05T14:10:30.711Z,0.70
2022-08-05T14:12:57.676Z,0.60
2022-08-05T14:16:05.083Z,0.60
2022-08-05T14:18:15.142Z,1.00
2022-08-05T14:20:47.329Z,0.47
2022-08-05T14:23:18.932Z,0.60
2022-08-05T14:25:53.894Z,0.60
2022-08-05T14:28:26.413Z,0.38
2022-08-05T14:30:53.457Z,0.50
2022-08-05T14:33:22.646Z,0.20
2022-08-05T14:35:51.382Z,0.43
2022-08-05T14:38:31.833Z,0.50
2022-08-05T14:41:01.814Z,0.50
2022-08-05T14:43:59.629Z,0.47
2022-08-05T14:46:19.300Z,0.50
2022-08-05T14:48:49.898Z,0.50
2022-08-05T14:51:16.672Z,0.40
2022-08-05T14:53:44.844Z,0.80
2022-08-05T14:56:11.847Z,0.60
2022-08-05T14:58:39.797Z,0.50
2022-08-05T15:01:16.227Z,1.73
2022-08-05T15:03:44.038Z,0.55
2022-08-05T15:06:15.501Z,0.98
2022-08-05T15:08:59.145Z,1.00
2022-08-05T15:11:52.990Z,0.65
2022-08-05T15:14:33.173Z,0.88
2022-08-05T15:17:03.823Z,0.50
2022-08-05T15:19:30.756Z,1.17
2022-08-05T15:21:59.926Z,0.70
2022-08-05T15:24:27.094Z,0.43
2022-08-05T15:26:53.508Z,0.52
2022-08-05T15:29:22.500Z,0.57
2022-08-05T15:31:52.870Z,0.63
2022-08-05T15:34:33.108Z,1.17
2022-08-05T15:37:06.530Z,1.08
2022-08-05T15:41:03.178Z,0.52
2022-08-05T15:42:50.407Z,0.60
2022-08-05T15:45:14.422Z,1.35
2022-08-05T15:47:42.186Z,1.00
2022-08-05T15:50:09.027Z,0.70
2022-08-05T15:52:53.226Z,1.15
2022-08-05T15:55:25.050Z,1.65
2022-08-05T15:58:08.116Z,0.52
2022-08-05T16:00:50.701Z,0.63
2022-08-05T16:03:20.939Z,1.17
2022-08-05T16:05:50.778Z,1.80
2022-08-05T16:08:19.097Z,2.10
2022-08-05T16:10:45.593Z,1.05
2022-08-05T16:13:12.448Z,1.00
2022-08-05T16:15:45.812Z,0.85
2022-08-05T16:18:13.709Z,0.65
2022-08-05T16:20:40.808Z,0.70
2022-08-05T16:23:08.645Z,1.00
2022-08-05T16:25:35.679Z,0.80
2022-08-05T16:28:05.994Z,0.82
2022-08-05T16:30:33.223Z,0.70
2022-08-05T16:32:59.962Z,0.77
2022-08-05T16:35:28.667Z,0.68
2022-08-05T16:38:15.745Z,0.77
2022-08-05T16:40:51.814Z,1.30
2022-08-05T16:43:23.722Z,0.80
2022-08-05T16:46:05.783Z,0.90
2022-08-05T16:48:35.425Z,0.80
2022-08-05T16:51:02.302Z,0.90
2022-08-05T16:54:03.203Z,0.70
2022-08-05T16:56:21.586Z,1.63
2022-08-05T16:58:49.758Z,1.27
2022-08-05T17:01:16.325Z,1.00
2022-08-05T17:03:45.452Z,0.68
2022-08-05T17:06:11.797Z,0.73
2022-08-05T17:08:53.111Z,0.50
2022-08-05T17:11:23.884Z,1.20
2022-08-05T17:13:51.804Z,0.80
2022-08-05T17:16:32.822Z,0.77
2022-08-05T17:19:00.242Z,0.77
2022-08-05T17:21:36.200Z,0.85
2022-08-05T17:24:14.328Z,0.63
2022-08-05T17:26:49.475Z,0.82
2022-08-05T17:29:17.122Z,0.60
2022-08-05T17:31:58.653Z,0.98
2022-08-05T17:34:29.557Z,0.88
2022-08-05T17:36:56.783Z,0.80
2022-08-05T17:39:24.133Z,0.70
2022-08-05T17:42:17.891Z,0.70
2022-08-05T17:44:37.303Z,0.73
2022-08-05T17:47:04.002Z,0.55
2022-08-05T17:49:59.944Z,0.50
2022-08-05T17:52:16.773Z,0.95
2022-08-05T17:54:43.137Z,0.73
2022-08-05T17:57:12.214Z,0.80
2022-08-05T17:59:40.104Z,1.05
2022-08-05T18:02:10.798Z,0.98
2022-08-05T18:04:51.228Z,0.77
2022-08-05T18:07:20.137Z,0.80
2022-08-05T18:09:59.393Z,0.60
2022-08-05T18:12:27.411Z,0.80
2022-08-05T18:14:54.816Z,1.00
2022-08-05T18:18:01.699Z,0.77
2022-08-05T18:20:07.963Z,0.82
2022-08-05T18:22:54.099Z,0.70
2022-08-05T18:25:21.148Z,0.75
2022-08-05T18:27:52.232Z,1.10
2022-08-05T18:30:19.327Z,0.88
2022-08-05T18:32:47.819Z,1.13
2022-08-05T18:35:20.428Z,1.02
2022-08-05T18:38:07.496Z,0.60
2022-08-05T18:41:53.943Z,0.80
2022-08-05T18:43:21.481Z,0.60
2022-08-05T18:45:49.556Z,0.63
2022-08-05T18:48:31.404Z,0.68
2022-08-05T18:52:06.709Z,0.90
2022-08-05T18:54:05.504Z,0.75
2022-08-05T18:56:31.981Z,0.82
2022-08-05T18:59:00.862Z,0.70
2022-08-05T19:01:33.188Z,0.95
2022-08-05T19:06:45.226Z,0.90
2022-08-05T19:09:12.090Z,0.68
2022-08-05T19:12:00.409Z,0.60
2022-08-05T19:14:37.797Z,1.15
2022-08-05T19:17:12.957Z,1.40
2022-08-05T19:19:46.336Z,0.85
2022-08-05T19:22:13.676Z,0.80
2022-08-05T19:24:55.804Z,0.50
2022-08-05T19:27:23.160Z,0.77
2022-08-05T19:29:49.995Z,1.23
2022-08-05T19:32:16.369Z,0.77
2022-08-05T19:34:54.913Z,0.90
2022-08-05T19:37:22.681Z,0.98
2022-08-05T19:40:01.888Z,1.05
2022-08-05T19:42:35.377Z,0.55
2022-08-05T19:45:03.250Z,0.70
2022-08-05T19:47:32.610Z,0.98
2022-08-05T19:50:01.023Z,0.60
2022-08-05T19:52:40.390Z,0.70
2022-08-05T19:56:11.812Z,0.55
2022-08-05T19:58:14.360Z,0.68
2022-08-05T20:00:40.066Z,0.60
2022-08-05T20:03:08.790Z,0.90
2022-08-05T20:05:43.130Z,0.60
2022-08-05T20:08:16.928Z,0.75
2022-08-05T20:10:43.407Z,0.50
2022-08-05T20:13:10.886Z,0.60
2022-08-05T20:15:52.348Z,1.13
2022-08-05T20:21:00.502Z,0.73
2022-08-05T20:23:40.385Z,0.68
2022-08-05T20:26:16.402Z,0.60
2022-08-05T20:28:48.544Z,0.60
2022-08-05T20:31:16.530Z,0.82
2022-08-05T20:33:43.574Z,0.60
2022-08-05T20:36:11.336Z,0.80
2022-08-05T20:38:37.872Z,0.88
2022-08-05T20:41:08.105Z,1.00
2022-08-05T20:43:58.925Z,0.90
2022-08-05T20:46:25.473Z,0.70
2022-08-05T20:48:51.976Z,0.80
2022-08-05T20:51:18.389Z,0.70
2022-08-05T20:53:56.168Z,0.60
2022-08-05T20:56:28.987Z,0.65
2022-08-05T20:59:11.203Z,0.80
2022-08-05T21:01:42.418Z,1.02
2022-08-05T21:04:10.751Z,0.68
2022-08-05T21:06:37.929Z,0.57
2022-08-05T21:09:11.819Z,0.55
2022-08-05T21:12:09.933Z,0.40
2022-08-05T21:14:26.926Z,0.65
2022-08-05T21:16:53.269Z,0.80
2022-08-05T21:19:20.121Z,0.68
2022-08-05T21:21:51.133Z,0.75
2022-08-05T21:24:19.646Z,0.40
2022-08-05T21:26:53.111Z,0.60
2022-08-05T21:29:26.307Z,0.73
2022-08-05T21:31:53.205Z,0.70
2022-08-05T21:34:20.408Z,0.60
2022-08-05T21:36:49.157Z,0.43
2022-08-05T21:39:17.050Z,0.73
2022-08-05T21:42:01.618Z,0.73
2022-08-05T21:44:29.185Z,1.08
2022-08-05T21:46:58.099Z,0.80
2022-08-05T21:49:48.247Z,0.70
2022-08-05T21:52:21.710Z,0.50
2022-08-05T21:54:55.138Z,0.40
2022-08-05T21:57:31.192Z,0.50
2022-08-05T22:00:06.955Z,1.20
2022-08-05T22:02:38.043Z,0.50
2022-08-05T22:05:04.862Z,0.60
2022-08-05T22:07:54.437Z,0.57
2022-08-05T22:10:27.173Z,0.50
2022-08-05T22:12:54.735Z,0.50
2022-08-05T22:16:01.170Z,0.68
2022-08-05T22:18:11.150Z,0.90
2022-08-05T22:20:38.886Z,1.13
2022-08-05T22:23:24.540Z,0.50
2022-08-05T22:26:11.844Z,0.60
2022-08-05T22:28:41.465Z,0.65
2022-08-05T22:31:08.080Z,0.90
2022-08-05T22:33:55.595Z,1.17
2022-08-05T22:36:24.160Z,0.90
2022-08-05T22:38:51.169Z,0.80
2022-08-05T22:42:05.009Z,0.98
2022-08-05T22:44:04.649Z,0.82
2022-08-05T22:46:31.619Z,0.50
2022-08-05T22:48:58.912Z,0.60
2022-08-05T22:52:03.030Z,1.50
2022-08-05T22:54:11.611Z,0.85
2022-08-05T22:56:39.884Z,0.98
2022-08-05T22:59:43.734Z,1.30
2022-08-05T23:02:06.249Z,0.90
2022-08-05T23:04:34.493Z,1.05
2022-08-05T23:07:01.040Z,1.52
2022-08-05T23:09:57.783Z,1.10
2022-08-05T23:12:14.165Z,0.90
2022-08-05T23:14:40.582Z,1.83
2022-08-05T23:17:34.300Z,1.63
2022-08-05T23:20:04.895Z,1.63
2022-08-05T23:22:31.959Z,1.42
2022-08-05T23:24:59.719Z,1.20
2022-08-05T23:27:28.875Z,1.10
2022-08-05T23:30:10.774Z,1.00
2022-08-05T23:32:37.413Z,1.30
2022-08-05T23:35:07.294Z,1.00
2022-08-05T23:37:34.184Z,1.05
2022-08-05T23:40:07.648Z,1.58
2022-08-05T23:42:37.299Z,1.10
2022-08-05T23:45:04.584Z,1.35
2022-08-05T23:47:47.776Z,1.20
2022-08-05T23:50:14.572Z,1.05
2022-08-05T23:52:49.765Z,1.10
2022-08-05T23:55:17.879Z,1.33
2022-08-05T23:57:44.213Z,1.17
